sensor_id;sensor_type;location;lat;lon;timestamp;P1;durP1;ratioP1;P2;durP2;ratioP2
13605;SDS011;6874;52.084;5.090;2023-02-13T00:00:01;52.33;;;50.57;;
13605;SDS011;6874;52.084;5.090;2023-02-13T00:02:29;52.23;;;50.47;;
13605;SDS011;6874;52.084;5.090;2023-02-13T00:04:55;53.10;;;51.30;;
13605;SDS011;6874;52.084;5.090;2023-02-13T00:07:20;53.37;;;51.60;;
13605;SDS011;6874;52.084;5.090;2023-02-13T00:09:46;51.83;;;50.07;;
13605;SDS011;6874;52.084;5.090;2023-02-13T00:12:11;52.27;;;50.50;;
13605;SDS011;6874;52.084;5.090;2023-02-13T00:14:37;56.27;;;54.37;;
13605;SDS011;6874;52.084;5.090;2023-02-13T00:17:04;50.07;;;48.37;;
13605;SDS011;6874;52.084;5.090;2023-02-13T00:19:30;54.50;;;52.67;;
13605;SDS011;6874;52.084;5.090;2023-02-13T00:21:56;52.23;;;50.43;;
13605;SDS011;6874;52.084;5.090;2023-02-13T00:24:21;54.43;;;52.60;;
13605;SDS011;6874;52.084;5.090;2023-02-13T00:26:47;58.70;;;56.73;;
13605;SDS011;6874;52.084;5.090;2023-02-13T00:29:13;56.63;;;54.70;;
13605;SDS011;6874;52.084;5.090;2023-02-13T00:31:38;51.80;;;50.07;;
13605;SDS011;6874;52.084;5.090;2023-02-13T00:34:04;51.90;;;50.13;;
13605;SDS011;6874;52.084;5.090;2023-02-13T00:36:29;51.43;;;49.70;;
13605;SDS011;6874;52.084;5.090;2023-02-13T00:38:55;52.67;;;50.90;;
13605;SDS011;6874;52.084;5.090;2023-02-13T00:41:20;52.63;;;50.87;;
13605;SDS011;6874;52.084;5.090;2023-02-13T00:43:46;52.47;;;50.70;;
13605;SDS011;6874;52.084;5.090;2023-02-13T00:46:13;53.27;;;51.43;;
13605;SDS011;6874;52.084;5.090;2023-02-13T00:48:39;52.10;;;50.37;;
13605;SDS011;6874;52.084;5.090;2023-02-13T00:51:05;52.83;;;51.03;;
13605;SDS011;6874;52.084;5.090;2023-02-13T00:53:31;52.40;;;50.67;;
13605;SDS011;6874;52.084;5.090;2023-02-13T00:55:58;52.33;;;50.57;;
13605;SDS011;6874;52.084;5.090;2023-02-13T00:58:23;51.90;;;50.17;;
13605;SDS011;6874;52.084;5.090;2023-02-13T01:00:49;51.80;;;50.03;;
13605;SDS011;6874;52.084;5.090;2023-02-13T01:03:16;50.83;;;49.10;;
13605;SDS011;6874;52.084;5.090;2023-02-13T01:05:42;51.43;;;49.70;;
13605;SDS011;6874;52.084;5.090;2023-02-13T01:08:09;52.83;;;51.07;;
13605;SDS011;6874;52.084;5.090;2023-02-13T01:10:36;51.37;;;49.63;;
13605;SDS011;6874;52.084;5.090;2023-02-13T01:13:02;50.37;;;48.67;;
13605;SDS011;6874;52.084;5.090;2023-02-13T01:15:28;51.30;;;49.57;;
13605;SDS011;6874;52.084;5.090;2023-02-13T01:17:53;52.63;;;50.90;;
13605;SDS011;6874;52.084;5.090;2023-02-13T01:20:21;46.80;;;45.23;;
13605;SDS011;6874;52.084;5.090;2023-02-13T01:22:47;47.53;;;45.97;;
13605;SDS011;6874;52.084;5.090;2023-02-13T01:25:13;53.17;;;51.37;;
13605;SDS011;6874;52.084;5.090;2023-02-13T01:27:39;48.57;;;46.93;;
13605;SDS011;6874;52.084;5.090;2023-02-13T01:30:05;50.63;;;48.93;;
13605;SDS011;6874;52.084;5.090;2023-02-13T01:32:37;50.53;;;48.83;;
13605;SDS011;6874;52.084;5.090;2023-02-13T01:35:07;45.83;;;44.30;;
13605;SDS011;6874;52.084;5.090;2023-02-13T01:37:33;48.70;;;47.03;;
13605;SDS011;6874;52.084;5.090;2023-02-13T01:39:59;49.40;;;47.73;;
13605;SDS011;6874;52.084;5.090;2023-02-13T01:42:26;47.93;;;46.33;;
13605;SDS011;6874;52.084;5.090;2023-02-13T01:44:57;50.33;;;48.67;;
13605;SDS011;6874;52.084;5.090;2023-02-13T01:49:54;49.73;;;48.03;;
13605;SDS011;6874;52.084;5.090;2023-02-13T01:52:27;50.53;;;48.83;;
13605;SDS011;6874;52.084;5.090;2023-02-13T01:54:54;49.43;;;47.77;;
13605;SDS011;6874;52.084;5.090;2023-02-13T01:57:20;50.73;;;49.03;;
13605;SDS011;6874;52.084;5.090;2023-02-13T01:59:51;47.67;;;46.07;;
13605;SDS011;6874;52.084;5.090;2023-02-13T02:02:22;47.60;;;46.00;;
13605;SDS011;6874;52.084;5.090;2023-02-13T02:04:49;49.17;;;47.50;;
13605;SDS011;6874;52.084;5.090;2023-02-13T02:07:20;46.47;;;44.93;;
13605;SDS011;6874;52.084;5.090;2023-02-13T02:09:48;47.57;;;46.00;;
13605;SDS011;6874;52.084;5.090;2023-02-13T02:15:05;43.20;;;41.80;;
13605;SDS011;6874;52.084;5.090;2023-02-13T02:17:31;47.00;;;45.40;;
13605;SDS011;6874;52.084;5.090;2023-02-13T02:28:15;42.73;;;41.33;;
13605;SDS011;6874;52.084;5.090;2023-02-13T02:31:18;44.90;;;43.43;;
13605;SDS011;6874;52.084;5.090;2023-02-13T02:34:11;43.50;;;42.07;;
13605;SDS011;6874;52.084;5.090;2023-02-13T02:42:09;43.33;;;41.90;;
13605;SDS011;6874;52.084;5.090;2023-02-13T02:44:55;44.07;;;42.60;;
13605;SDS011;6874;52.084;5.090;2023-02-13T02:47:53;42.97;;;41.53;;
13605;SDS011;6874;52.084;5.090;2023-02-13T02:50:52;49.37;;;47.73;;
13605;SDS011;6874;52.084;5.090;2023-02-13T02:53:30;49.13;;;47.53;;
13605;SDS011;6874;52.084;5.090;2023-02-13T02:56:19;49.50;;;47.87;;
13605;SDS011;6874;52.084;5.090;2023-02-13T02:59:11;47.17;;;45.60;;
13605;SDS011;6874;52.084;5.090;2023-02-13T03:01:58;53.37;;;51.63;;
13605;SDS011;6874;52.084;5.090;2023-02-13T03:04:47;49.47;;;47.87;;
13605;SDS011;6874;52.084;5.090;2023-02-13T03:07:34;45.73;;;44.23;;
13605;SDS011;6874;52.084;5.090;2023-02-13T03:10:04;50.23;;;48.60;;
13605;SDS011;6874;52.084;5.090;2023-02-13T03:13:00;54.17;;;52.40;;
13605;SDS011;6874;52.084;5.090;2023-02-13T03:15:42;49.67;;;48.03;;
13605;SDS011;6874;52.084;5.090;2023-02-13T03:18:31;50.77;;;49.13;;
13605;SDS011;6874;52.084;5.090;2023-02-13T03:24:42;50.53;;;48.87;;
13605;SDS011;6874;52.084;5.090;2023-02-13T03:36:07;52.60;;;50.87;;
13605;SDS011;6874;52.084;5.090;2023-02-13T03:42:14;57.17;;;55.33;;
13605;SDS011;6874;52.084;5.090;2023-02-13T03:44:54;54.40;;;52.63;;
13605;SDS011;6874;52.084;5.090;2023-02-13T03:47:42;55.57;;;53.77;;
13605;SDS011;6874;52.084;5.090;2023-02-13T03:50:09;56.93;;;55.10;;
13605;SDS011;6874;52.084;5.090;2023-02-13T03:52:46;53.27;;;51.53;;
13605;SDS011;6874;52.084;5.090;2023-02-13T03:55:30;54.10;;;52.33;;
13605;SDS011;6874;52.084;5.090;2023-02-13T03:58:23;57.03;;;55.17;;
13605;SDS011;6874;52.084;5.090;2023-02-13T04:01:12;54.53;;;52.77;;
13605;SDS011;6874;52.084;5.090;2023-02-13T04:06:10;57.47;;;55.57;;
13605;SDS011;6874;52.084;5.090;2023-02-13T04:08:41;53.67;;;51.90;;
13605;SDS011;6874;52.084;5.090;2023-02-13T04:13:42;52.07;;;50.33;;
13605;SDS011;6874;52.084;5.090;2023-02-13T04:19:00;51.67;;;49.97;;
13605;SDS011;6874;52.084;5.090;2023-02-13T04:21:26;50.90;;;49.23;;
13605;SDS011;6874;52.084;5.090;2023-02-13T04:23:52;49.57;;;47.90;;
13605;SDS011;6874;52.084;5.090;2023-02-13T04:26:19;282.50;;;272.50;;
13605;SDS011;6874;52.084;5.090;2023-02-13T04:28:47;184.60;;;177.90;;
13605;SDS011;6874;52.084;5.090;2023-02-13T04:31:12;110.57;;;106.67;;
13605;SDS011;6874;52.084;5.090;2023-02-13T04:33:38;85.47;;;82.47;;
13605;SDS011;6874;52.084;5.090;2023-02-13T04:36:04;73.73;;;71.13;;
13605;SDS011;6874;52.084;5.090;2023-02-13T04:38:29;73.60;;;71.10;;
13605;SDS011;6874;52.084;5.090;2023-02-13T04:40:55;65.40;;;63.13;;
13605;SDS011;6874;52.084;5.090;2023-02-13T04:43:21;64.93;;;62.67;;
13605;SDS011;6874;52.084;5.090;2023-02-13T04:45:47;64.60;;;62.37;;
13605;SDS011;6874;52.084;5.090;2023-02-13T04:48:13;63.00;;;60.80;;
13605;SDS011;6874;52.084;5.090;2023-02-13T04:50:39;60.97;;;58.90;;
13605;SDS011;6874;52.084;5.090;2023-02-13T04:53:05;56.23;;;54.33;;
13605;SDS011;6874;52.084;5.090;2023-02-13T04:55:30;50.93;;;49.20;;
13605;SDS011;6874;52.084;5.090;2023-02-13T04:57:56;51.37;;;49.67;;
13605;SDS011;6874;52.084;5.090;2023-02-13T05:00:22;48.07;;;46.43;;
13605;SDS011;6874;52.084;5.090;2023-02-13T05:02:50;45.43;;;43.93;;
13605;SDS011;6874;52.084;5.090;2023-02-13T05:05:15;46.70;;;45.17;;
13605;SDS011;6874;52.084;5.090;2023-02-13T05:07:41;44.10;;;42.63;;
13605;SDS011;6874;52.084;5.090;2023-02-13T05:10:08;43.40;;;41.97;;
13605;SDS011;6874;52.084;5.090;2023-02-13T05:12:34;46.17;;;44.67;;
13605;SDS011;6874;52.084;5.090;2023-02-13T05:15:00;44.70;;;43.20;;
13605;SDS011;6874;52.084;5.090;2023-02-13T05:17:25;44.83;;;43.33;;
13605;SDS011;6874;52.084;5.090;2023-02-13T05:19:51;42.80;;;41.37;;
13605;SDS011;6874;52.084;5.090;2023-02-13T05:22:16;46.37;;;44.83;;
13605;SDS011;6874;52.084;5.090;2023-02-13T05:25:00;41.63;;;40.27;;
13605;SDS011;6874;52.084;5.090;2023-02-13T05:27:26;46.83;;;45.27;;
13605;SDS011;6874;52.084;5.090;2023-02-13T05:29:51;44.87;;;43.40;;
13605;SDS011;6874;52.084;5.090;2023-02-13T05:32:17;44.60;;;43.13;;
13605;SDS011;6874;52.084;5.090;2023-02-13T05:34:42;45.93;;;44.40;;
13605;SDS011;6874;52.084;5.090;2023-02-13T05:37:08;46.83;;;45.27;;
13605;SDS011;6874;52.084;5.090;2023-02-13T05:39:35;44.23;;;42.80;;
13605;SDS011;6874;52.084;5.090;2023-02-13T05:42:00;44.97;;;43.47;;
13605;SDS011;6874;52.084;5.090;2023-02-13T05:44:28;46.13;;;44.60;;
13605;SDS011;6874;52.084;5.090;2023-02-13T05:46:55;45.83;;;44.30;;
13605;SDS011;6874;52.084;5.090;2023-02-13T05:49:20;48.13;;;46.57;;
13605;SDS011;6874;52.084;5.090;2023-02-13T05:51:47;43.43;;;42.00;;
13605;SDS011;6874;52.084;5.090;2023-02-13T05:54:13;46.70;;;45.17;;
13605;SDS011;6874;52.084;5.090;2023-02-13T05:56:38;45.27;;;43.77;;
13605;SDS011;6874;52.084;5.090;2023-02-13T05:59:04;43.93;;;42.47;;
13605;SDS011;6874;52.084;5.090;2023-02-13T06:01:30;47.23;;;45.67;;
13605;SDS011;6874;52.084;5.090;2023-02-13T06:03:55;44.70;;;43.23;;
13605;SDS011;6874;52.084;5.090;2023-02-13T06:06:21;50.63;;;48.97;;
13605;SDS011;6874;52.084;5.090;2023-02-13T06:08:47;44.17;;;42.70;;
13605;SDS011;6874;52.084;5.090;2023-02-13T06:11:12;42.30;;;40.90;;
13605;SDS011;6874;52.084;5.090;2023-02-13T06:13:38;44.93;;;43.47;;
13605;SDS011;6874;52.084;5.090;2023-02-13T06:16:05;46.40;;;44.90;;
13605;SDS011;6874;52.084;5.090;2023-02-13T06:18:32;45.23;;;43.77;;
13605;SDS011;6874;52.084;5.090;2023-02-13T06:20:58;47.17;;;45.60;;
13605;SDS011;6874;52.084;5.090;2023-02-13T06:23:23;45.57;;;44.07;;
13605;SDS011;6874;52.084;5.090;2023-02-13T06:25:49;42.07;;;40.70;;
13605;SDS011;6874;52.084;5.090;2023-02-13T06:28:15;45.70;;;44.20;;
13605;SDS011;6874;52.084;5.090;2023-02-13T06:30:40;42.57;;;41.17;;
13605;SDS011;6874;52.084;5.090;2023-02-13T06:33:06;45.03;;;43.57;;
13605;SDS011;6874;52.084;5.090;2023-02-13T06:35:31;43.83;;;42.37;;
13605;SDS011;6874;52.084;5.090;2023-02-13T06:37:57;45.43;;;43.93;;
13605;SDS011;6874;52.084;5.090;2023-02-13T06:40:23;44.03;;;42.60;;
13605;SDS011;6874;52.084;5.090;2023-02-13T06:42:48;45.67;;;44.17;;
13605;SDS011;6874;52.084;5.090;2023-02-13T06:45:14;44.73;;;43.27;;
13605;SDS011;6874;52.084;5.090;2023-02-13T06:47:40;43.30;;;41.87;;
13605;SDS011;6874;52.084;5.090;2023-02-13T06:50:07;49.87;;;48.23;;
13605;SDS011;6874;52.084;5.090;2023-02-13T06:52:34;44.23;;;42.77;;
13605;SDS011;6874;52.084;5.090;2023-02-13T06:55:00;46.57;;;45.03;;
13605;SDS011;6874;52.084;5.090;2023-02-13T06:57:26;45.37;;;43.87;;
13605;SDS011;6874;52.084;5.090;2023-02-13T06:59:53;45.27;;;43.77;;
13605;SDS011;6874;52.084;5.090;2023-02-13T07:02:19;46.60;;;45.07;;
13605;SDS011;6874;52.084;5.090;2023-02-13T07:04:45;46.53;;;45.00;;
13605;SDS011;6874;52.084;5.090;2023-02-13T07:07:10;46.13;;;44.60;;
13605;SDS011;6874;52.084;5.090;2023-02-13T07:09:36;45.57;;;44.07;;
13605;SDS011;6874;52.084;5.090;2023-02-13T07:12:02;45.87;;;44.33;;
13605;SDS011;6874;52.084;5.090;2023-02-13T07:14:29;48.03;;;46.43;;
13605;SDS011;6874;52.084;5.090;2023-02-13T07:16:54;47.30;;;45.73;;
13605;SDS011;6874;52.084;5.090;2023-02-13T07:19:20;46.73;;;45.20;;
13605;SDS011;6874;52.084;5.090;2023-02-13T07:21:46;47.53;;;45.97;;
13605;SDS011;6874;52.084;5.090;2023-02-13T07:24:11;45.43;;;43.93;;
13605;SDS011;6874;52.084;5.090;2023-02-13T07:26:37;44.67;;;43.20;;
13605;SDS011;6874;52.084;5.090;2023-02-13T07:29:03;42.33;;;40.93;;
13605;SDS011;6874;52.084;5.090;2023-02-13T07:31:31;47.20;;;45.63;;
13605;SDS011;6874;52.084;5.090;2023-02-13T07:33:57;46.10;;;44.57;;
13605;SDS011;6874;52.084;5.090;2023-02-13T07:36:23;43.53;;;42.07;;
13605;SDS011;6874;52.084;5.090;2023-02-13T07:38:48;48.93;;;47.30;;
13605;SDS011;6874;52.084;5.090;2023-02-13T07:41:14;53.47;;;51.67;;
13605;SDS011;6874;52.084;5.090;2023-02-13T07:43:39;52.83;;;51.03;;
13605;SDS011;6874;52.084;5.090;2023-02-13T07:46:05;54.27;;;52.43;;
13605;SDS011;6874;52.084;5.090;2023-02-13T07:48:30;52.50;;;50.73;;
13605;SDS011;6874;52.084;5.090;2023-02-13T07:51:00;59.77;;;57.77;;
13605;SDS011;6874;52.084;5.090;2023-02-13T07:53:27;55.00;;;53.17;;
13605;SDS011;6874;52.084;5.090;2023-02-13T07:55:52;60.47;;;58.40;;
13605;SDS011;6874;52.084;5.090;2023-02-13T07:58:18;60.50;;;58.47;;
13605;SDS011;6874;52.084;5.090;2023-02-13T08:00:44;59.50;;;57.47;;
13605;SDS011;6874;52.084;5.090;2023-02-13T08:03:09;64.87;;;62.63;;
13605;SDS011;6874;52.084;5.090;2023-02-13T08:05:35;67.33;;;65.03;;
13605;SDS011;6874;52.084;5.090;2023-02-13T08:08:01;64.17;;;61.97;;
13605;SDS011;6874;52.084;5.090;2023-02-13T08:10:27;65.43;;;63.23;;
13605;SDS011;6874;52.084;5.090;2023-02-13T08:13:11;56.47;;;54.57;;
13605;SDS011;6874;52.084;5.090;2023-02-13T08:15:38;56.03;;;54.13;;
13605;SDS011;6874;52.084;5.090;2023-02-13T08:18:04;58.23;;;56.27;;
13605;SDS011;6874;52.084;5.090;2023-02-13T08:20:30;63.00;;;60.87;;
13605;SDS011;6874;52.084;5.090;2023-02-13T08:23:03;61.03;;;58.97;;
13605;SDS011;6874;52.084;5.090;2023-02-13T08:25:29;57.53;;;55.60;;
13605;SDS011;6874;52.084;5.090;2023-02-13T08:27:55;56.90;;;55.00;;
13605;SDS011;6874;52.084;5.090;2023-02-13T08:30:22;53.87;;;52.07;;
13605;SDS011;6874;52.084;5.090;2023-02-13T08:32:48;54.73;;;52.90;;
13605;SDS011;6874;52.084;5.090;2023-02-13T08:35:14;55.40;;;53.57;;
13605;SDS011;6874;52.084;5.090;2023-02-13T08:37:39;49.33;;;47.70;;
13605;SDS011;6874;52.084;5.090;2023-02-13T08:40:05;51.50;;;49.80;;
13605;SDS011;6874;52.084;5.090;2023-02-13T08:42:34;49.33;;;47.73;;
13605;SDS011;6874;52.084;5.090;2023-02-13T08:45:00;50.77;;;49.07;;
13605;SDS011;6874;52.084;5.090;2023-02-13T08:47:26;48.37;;;46.77;;
13605;SDS011;6874;52.084;5.090;2023-02-13T08:49:51;64.80;;;62.27;;
13605;SDS011;6874;52.084;5.090;2023-02-13T08:52:17;45.70;;;44.20;;
13605;SDS011;6874;52.084;5.090;2023-02-13T08:54:42;44.80;;;43.33;;
13605;SDS011;6874;52.084;5.090;2023-02-13T08:57:08;42.43;;;41.00;;
13605;SDS011;6874;52.084;5.090;2023-02-13T08:59:34;42.47;;;41.07;;
13605;SDS011;6874;52.084;5.090;2023-02-13T09:01:59;41.37;;;40.00;;
13605;SDS011;6874;52.084;5.090;2023-02-13T09:04:25;38.23;;;37.00;;
13605;SDS011;6874;52.084;5.090;2023-02-13T09:06:50;38.20;;;36.97;;
13605;SDS011;6874;52.084;5.090;2023-02-13T09:09:17;38.67;;;37.40;;
13605;SDS011;6874;52.084;5.090;2023-02-13T09:11:43;42.17;;;40.77;;
13605;SDS011;6874;52.084;5.090;2023-02-13T09:14:09;43.07;;;41.67;;
13605;SDS011;6874;52.084;5.090;2023-02-13T09:16:34;41.40;;;40.03;;
13605;SDS011;6874;52.084;5.090;2023-02-13T09:19:00;39.13;;;37.87;;
13605;SDS011;6874;52.084;5.090;2023-02-13T09:21:25;41.67;;;40.30;;
13605;SDS011;6874;52.084;5.090;2023-02-13T09:23:51;40.83;;;39.50;;
13605;SDS011;6874;52.084;5.090;2023-02-13T09:26:19;38.93;;;37.67;;
13605;SDS011;6874;52.084;5.090;2023-02-13T09:28:44;37.70;;;36.47;;
13605;SDS011;6874;52.084;5.090;2023-02-13T09:31:11;38.70;;;37.43;;
13605;SDS011;6874;52.084;5.090;2023-02-13T09:33:45;39.73;;;38.43;;
13605;SDS011;6874;52.084;5.090;2023-02-13T09:36:13;42.00;;;40.63;;
13605;SDS011;6874;52.084;5.090;2023-02-13T09:38:40;47.93;;;46.37;;
13605;SDS011;6874;52.084;5.090;2023-02-13T09:41:19;44.47;;;43.03;;
13605;SDS011;6874;52.084;5.090;2023-02-13T09:46:35;42.57;;;41.20;;
13605;SDS011;6874;52.084;5.090;2023-02-13T09:49:06;46.13;;;44.63;;
13605;SDS011;6874;52.084;5.090;2023-02-13T09:51:37;46.90;;;45.37;;
13605;SDS011;6874;52.084;5.090;2023-02-13T09:54:06;42.43;;;41.07;;
13605;SDS011;6874;52.084;5.090;2023-02-13T09:59:42;43.33;;;41.93;;
13605;SDS011;6874;52.084;5.090;2023-02-13T10:02:31;47.17;;;45.63;;
13605;SDS011;6874;52.084;5.090;2023-02-13T10:07:44;44.20;;;42.77;;
13605;SDS011;6874;52.084;5.090;2023-02-13T10:10:20;48.83;;;47.23;;
13605;SDS011;6874;52.084;5.090;2023-02-13T10:18:37;54.90;;;53.07;;
13605;SDS011;6874;52.084;5.090;2023-02-13T10:21:12;56.67;;;54.80;;
13605;SDS011;6874;52.084;5.090;2023-02-13T10:23:43;54.53;;;52.73;;
13605;SDS011;6874;52.084;5.090;2023-02-13T10:26:24;54.17;;;52.37;;
13605;SDS011;6874;52.084;5.090;2023-02-13T10:29:07;58.73;;;56.80;;
13605;SDS011;6874;52.084;5.090;2023-02-13T10:32:15;61.97;;;59.90;;
13605;SDS011;6874;52.084;5.090;2023-02-13T10:34:46;60.60;;;58.60;;
13605;SDS011;6874;52.084;5.090;2023-02-13T10:37:18;60.30;;;58.30;;
13605;SDS011;6874;52.084;5.090;2023-02-13T10:39:46;59.50;;;57.53;;
13605;SDS011;6874;52.084;5.090;2023-02-13T10:48:05;62.90;;;60.80;;
13605;SDS011;6874;52.084;5.090;2023-02-13T10:56:01;65.37;;;63.20;;
13605;SDS011;6874;52.084;5.090;2023-02-13T10:58:52;75.03;;;72.53;;
13605;SDS011;6874;52.084;5.090;2023-02-13T11:01:38;72.50;;;70.10;;
13605;SDS011;6874;52.084;5.090;2023-02-13T11:04:18;78.07;;;75.47;;
13605;SDS011;6874;52.084;5.090;2023-02-13T11:06:53;79.63;;;76.97;;
13605;SDS011;6874;52.084;5.090;2023-02-13T11:09:24;79.63;;;76.93;;
13605;SDS011;6874;52.084;5.090;2023-02-13T11:11:50;76.50;;;73.93;;
13605;SDS011;6874;52.084;5.090;2023-02-13T11:16:58;81.37;;;78.63;;
13605;SDS011;6874;52.084;5.090;2023-02-13T11:19:31;82.50;;;79.73;;
13605;SDS011;6874;52.084;5.090;2023-02-13T11:22:24;91.83;;;88.73;;
13605;SDS011;6874;52.084;5.090;2023-02-13T11:25:01;83.77;;;80.97;;
13605;SDS011;6874;52.084;5.090;2023-02-13T11:27:33;94.73;;;91.53;;
13605;SDS011;6874;52.084;5.090;2023-02-13T11:30:28;95.87;;;92.67;;
13605;SDS011;6874;52.084;5.090;2023-02-13T11:33:17;96.80;;;93.50;;
13605;SDS011;6874;52.084;5.090;2023-02-13T11:35:50;100.13;;;96.73;;
13605;SDS011;6874;52.084;5.090;2023-02-13T11:38:32;105.33;;;101.73;;
13605;SDS011;6874;52.084;5.090;2023-02-13T11:41:11;104.60;;;101.03;;
13605;SDS011;6874;52.084;5.090;2023-02-13T11:43:43;102.97;;;99.47;;
13605;SDS011;6874;52.084;5.090;2023-02-13T11:46:22;103.20;;;99.67;;
13605;SDS011;6874;52.084;5.090;2023-02-13T11:52:04;103.10;;;99.57;;
13605;SDS011;6874;52.084;5.090;2023-02-13T11:54:34;100.97;;;97.50;;
13605;SDS011;6874;52.084;5.090;2023-02-13T11:57:21;98.23;;;94.87;;
13605;SDS011;6874;52.084;5.090;2023-02-13T11:59:50;104.60;;;100.93;;
13605;SDS011;6874;52.084;5.090;2023-02-13T12:02:26;111.13;;;107.30;;
13605;SDS011;6874;52.084;5.090;2023-02-13T12:05:15;110.87;;;107.07;;
13605;SDS011;6874;52.084;5.090;2023-02-13T12:07:41;110.20;;;106.43;;
13605;SDS011;6874;52.084;5.090;2023-02-13T12:10:15;115.50;;;111.50;;
13605;SDS011;6874;52.084;5.090;2023-02-13T12:16:02;95.13;;;91.83;;
13605;SDS011;6874;52.084;5.090;2023-02-13T12:18:36;102.90;;;99.37;;
13605;SDS011;6874;52.084;5.090;2023-02-13T12:27:13;85.27;;;82.33;;
13605;SDS011;6874;52.084;5.090;2023-02-13T12:35:49;71.53;;;69.07;;
13605;SDS011;6874;52.084;5.090;2023-02-13T12:43:33;61.17;;;59.07;;
13605;SDS011;6874;52.084;5.090;2023-02-13T12:46:24;63.03;;;60.83;;
13605;SDS011;6874;52.084;5.090;2023-02-13T12:55:16;124.17;;;119.90;;
13605;SDS011;6874;52.084;5.090;2023-02-13T12:57:53;140.90;;;135.93;;
13605;SDS011;6874;52.084;5.090;2023-02-13T13:00:55;135.60;;;130.77;;
13605;SDS011;6874;52.084;5.090;2023-02-13T13:06:51;87.80;;;84.73;;
13605;SDS011;6874;52.084;5.090;2023-02-13T13:22:52;44.07;;;42.60;;
13605;SDS011;6874;52.084;5.090;2023-02-13T13:28:28;32.43;;;31.40;;
13605;SDS011;6874;52.084;5.090;2023-02-13T13:31:01;28.40;;;27.47;;
13605;SDS011;6874;52.084;5.090;2023-02-13T13:33:27;26.40;;;25.57;;
13605;SDS011;6874;52.084;5.090;2023-02-13T13:39:04;34.77;;;33.67;;
13605;SDS011;6874;52.084;5.090;2023-02-13T13:50:04;67.67;;;65.37;;
13605;SDS011;6874;52.084;5.090;2023-02-13T13:52:41;71.50;;;69.03;;
13605;SDS011;6874;52.084;5.090;2023-02-13T13:58:46;81.37;;;78.57;;
13605;SDS011;6874;52.084;5.090;2023-02-13T14:03:42;82.70;;;79.83;;
13605;SDS011;6874;52.084;5.090;2023-02-13T14:06:13;81.60;;;78.77;;
13605;SDS011;6874;52.084;5.090;2023-02-13T14:16:51;104.40;;;100.67;;
13605;SDS011;6874;52.084;5.090;2023-02-13T14:19:34;119.47;;;115.23;;
13605;SDS011;6874;52.084;5.090;2023-02-13T14:24:52;118.43;;;114.23;;
13605;SDS011;6874;52.084;5.090;2023-02-13T14:27:27;137.20;;;132.30;;
13605;SDS011;6874;52.084;5.090;2023-02-13T14:29:55;150.87;;;145.47;;
13605;SDS011;6874;52.084;5.090;2023-02-13T14:34:55;167.33;;;161.20;;
13605;SDS011;6874;52.084;5.090;2023-02-13T14:37:27;177.97;;;171.43;;
13605;SDS011;6874;52.084;5.090;2023-02-13T14:40:28;167.53;;;161.30;;
13605;SDS011;6874;52.084;5.090;2023-02-13T14:46:01;155.50;;;149.83;;
13605;SDS011;6874;52.084;5.090;2023-02-13T14:49:09;140.97;;;135.93;;
13605;SDS011;6874;52.084;5.090;2023-02-13T14:51:58;146.00;;;140.87;;
13605;SDS011;6874;52.084;5.090;2023-02-13T14:54:48;146.00;;;140.73;;
13605;SDS011;6874;52.084;5.090;2023-02-13T14:57:18;148.17;;;142.87;;
13605;SDS011;6874;52.084;5.090;2023-02-13T14:59:54;153.63;;;148.03;;
13605;SDS011;6874;52.084;5.090;2023-02-13T15:02:30;163.27;;;157.27;;
13605;SDS011;6874;52.084;5.090;2023-02-13T15:05:03;157.73;;;151.87;;
13605;SDS011;6874;52.084;5.090;2023-02-13T15:07:35;184.47;;;177.67;;
13605;SDS011;6874;52.084;5.090;2023-02-13T15:12:56;166.83;;;160.67;;
13605;SDS011;6874;52.084;5.090;2023-02-13T15:15:24;192.70;;;185.47;;
13605;SDS011;6874;52.084;5.090;2023-02-13T15:18:00;185.00;;;178.03;;
13605;SDS011;6874;52.084;5.090;2023-02-13T15:20:32;214.50;;;206.50;;
13605;SDS011;6874;52.084;5.090;2023-02-13T15:22:58;219.50;;;211.13;;
13605;SDS011;6874;52.084;5.090;2023-02-13T15:25:30;217.03;;;208.93;;
13605;SDS011;6874;52.084;5.090;2023-02-13T15:28:04;206.80;;;199.27;;
13605;SDS011;6874;52.084;5.090;2023-02-13T15:30:34;194.00;;;187.00;;
13605;SDS011;6874;52.084;5.090;2023-02-13T15:33:03;180.87;;;174.30;;
13605;SDS011;6874;52.084;5.090;2023-02-13T15:35:30;173.37;;;167.23;;
13605;SDS011;6874;52.084;5.090;2023-02-13T15:37:57;178.70;;;172.33;;
13605;SDS011;6874;52.084;5.090;2023-02-13T15:40:27;185.03;;;178.37;;
13605;SDS011;6874;52.084;5.090;2023-02-13T15:43:01;192.20;;;185.13;;
13605;SDS011;6874;52.084;5.090;2023-02-13T15:45:27;190.83;;;183.87;;
13605;SDS011;6874;52.084;5.090;2023-02-13T15:47:54;189.37;;;182.43;;
13605;SDS011;6874;52.084;5.090;2023-02-13T15:50:31;194.40;;;187.27;;
13605;SDS011;6874;52.084;5.090;2023-02-13T15:52:59;375.88;;;360.17;;
13605;SDS011;6874;52.084;5.090;2023-02-13T15:55:30;164.20;;;158.37;;
13605;SDS011;6874;52.084;5.090;2023-02-13T15:57:58;174.67;;;168.30;;
13605;SDS011;6874;52.084;5.090;2023-02-13T16:00:26;189.17;;;182.37;;
13605;SDS011;6874;52.084;5.090;2023-02-13T16:02:54;182.53;;;175.93;;
13605;SDS011;6874;52.084;5.090;2023-02-13T16:05:22;188.53;;;181.77;;
13605;SDS011;6874;52.084;5.090;2023-02-13T16:10:22;166.87;;;160.93;;
13605;SDS011;6874;52.084;5.090;2023-02-13T16:12:57;167.93;;;161.97;;
13605;SDS011;6874;52.084;5.090;2023-02-13T16:15:27;166.27;;;160.37;;
13605;SDS011;6874;52.084;5.090;2023-02-13T16:17:54;176.77;;;170.40;;
13605;SDS011;6874;52.084;5.090;2023-02-13T16:20:21;189.97;;;183.20;;
13605;SDS011;6874;52.084;5.090;2023-02-13T16:22:50;186.37;;;179.60;;
13605;SDS011;6874;52.084;5.090;2023-02-13T16:25:30;190.33;;;183.53;;
13605;SDS011;6874;52.084;5.090;2023-02-13T16:28:02;200.30;;;193.10;;
13605;SDS011;6874;52.084;5.090;2023-02-13T16:30:54;188.03;;;181.33;;
13605;SDS011;6874;52.084;5.090;2023-02-13T16:33:27;184.60;;;178.03;;
13605;SDS011;6874;52.084;5.090;2023-02-13T16:36:00;197.60;;;190.63;;
13605;SDS011;6874;52.084;5.090;2023-02-13T16:38:43;192.87;;;186.00;;
13605;SDS011;6874;52.084;5.090;2023-02-13T16:48:44;170.00;;;164.10;;
13605;SDS011;6874;52.084;5.090;2023-02-13T16:51:22;162.93;;;157.27;;
13605;SDS011;6874;52.084;5.090;2023-02-13T16:53:58;159.13;;;153.63;;
13605;SDS011;6874;52.084;5.090;2023-02-13T16:56:26;142.70;;;137.77;;
13605;SDS011;6874;52.084;5.090;2023-02-13T16:59:03;137.63;;;132.87;;
13605;SDS011;6874;52.084;5.090;2023-02-13T17:01:29;126.67;;;122.30;;
13605;SDS011;6874;52.084;5.090;2023-02-13T17:03:55;115.93;;;111.97;;
13605;SDS011;6874;52.084;5.090;2023-02-13T17:06:22;109.07;;;105.37;;
13605;SDS011;6874;52.084;5.090;2023-02-13T17:08:48;108.53;;;104.83;;
13605;SDS011;6874;52.084;5.090;2023-02-13T17:11:16;106.00;;;102.40;;
13605;SDS011;6874;52.084;5.090;2023-02-13T17:13:43;98.57;;;95.20;;
13605;SDS011;6874;52.084;5.090;2023-02-13T17:16:08;93.40;;;90.17;;
13605;SDS011;6874;52.084;5.090;2023-02-13T17:18:34;75.53;;;72.93;;
13605;SDS011;6874;52.084;5.090;2023-02-13T17:20:59;70.93;;;68.50;;
13605;SDS011;6874;52.084;5.090;2023-02-13T17:23:25;62.97;;;60.80;;
13605;SDS011;6874;52.084;5.090;2023-02-13T17:25:51;63.80;;;61.63;;
13605;SDS011;6874;52.084;5.090;2023-02-13T17:30:48;81.87;;;79.10;;
13605;SDS011;6874;52.084;5.090;2023-02-13T17:33:20;93.83;;;90.63;;
13605;SDS011;6874;52.084;5.090;2023-02-13T17:35:50;103.63;;;100.13;;
13605;SDS011;6874;52.084;5.090;2023-02-13T17:38:17;111.97;;;108.17;;